sensor_id;sensor_type;location;lat;lon;timestamp;P1;durP1;ratioP1;P2;durP2;ratioP2
3865;SDS011;1948;53.250;10.412;2022-07-09T00:02:20;7.67;;;4.77;;
3865;SDS011;1948;53.250;10.412;2022-07-09T00:04:47;13.73;;;4.60;;
3865;SDS011;1948;53.250;10.412;2022-07-09T00:07:14;21.70;;;4.97;;
3865;SDS011;1948;53.250;10.412;2022-07-09T00:09:41;19.93;;;5.40;;
3865;SDS011;1948;53.250;10.412;2022-07-09T00:12:11;18.60;;;5.53;;
3865;SDS011;1948;53.250;10.412;2022-07-09T00:14:40;31.23;;;5.83;;
3865;SDS011;1948;53.250;10.412;2022-07-09T00:17:07;18.10;;;5.70;;
3865;SDS011;1948;53.250;10.412;2022-07-09T00:19:33;24.70;;;4.70;;
3865;SDS011;1948;53.250;10.412;2022-07-09T00:22:03;15.13;;;4.87;;
3865;SDS011;1948;53.250;10.412;2022-07-09T00:24:31;16.00;;;5.50;;
3865;SDS011;1948;53.250;10.412;2022-07-09T00:26:58;18.47;;;5.20;;
3865;SDS011;1948;53.250;10.412;2022-07-09T00:29:25;18.37;;;4.90;;
3865;SDS011;1948;53.250;10.412;2022-07-09T00:31:57;21.03;;;4.90;;
3865;SDS011;1948;53.250;10.412;2022-07-09T00:34:28;24.00;;;5.50;;
3865;SDS011;1948;53.250;10.412;2022-07-09T00:36:55;19.90;;;4.83;;
3865;SDS011;1948;53.250;10.412;2022-07-09T00:39:22;14.07;;;4.60;;
3865;SDS011;1948;53.250;10.412;2022-07-09T00:41:49;11.90;;;5.07;;
3865;SDS011;1948;53.250;10.412;2022-07-09T00:44:16;20.30;;;5.30;;
3865;SDS011;1948;53.250;10.412;2022-07-09T00:46:46;13.40;;;4.73;;
3865;SDS011;1948;53.250;10.412;2022-07-09T00:49:13;12.57;;;5.00;;
3865;SDS011;1948;53.250;10.412;2022-07-09T00:51:40;13.17;;;4.60;;
3865;SDS011;1948;53.250;10.412;2022-07-09T00:54:07;23.47;;;5.90;;
3865;SDS011;1948;53.250;10.412;2022-07-09T00:56:34;30.67;;;5.30;;
3865;SDS011;1948;53.250;10.412;2022-07-09T00:59:01;8.33;;;5.00;;
3865;SDS011;1948;53.250;10.412;2022-07-09T01:01:36;18.83;;;4.97;;
3865;SDS011;1948;53.250;10.412;2022-07-09T01:04:06;11.90;;;4.67;;
3865;SDS011;1948;53.250;10.412;2022-07-09T01:06:33;32.13;;;5.10;;
3865;SDS011;1948;53.250;10.412;2022-07-09T01:09:06;14.47;;;5.33;;
3865;SDS011;1948;53.250;10.412;2022-07-09T01:11:36;8.73;;;5.33;;
3865;SDS011;1948;53.250;10.412;2022-07-09T01:14:03;19.00;;;5.50;;
3865;SDS011;1948;53.250;10.412;2022-07-09T01:16:34;23.67;;;6.13;;
3865;SDS011;1948;53.250;10.412;2022-07-09T01:19:05;10.00;;;4.90;;
3865;SDS011;1948;53.250;10.412;2022-07-09T01:21:32;15.73;;;5.30;;
3865;SDS011;1948;53.250;10.412;2022-07-09T01:24:02;21.27;;;6.03;;
3865;SDS011;1948;53.250;10.412;2022-07-09T01:26:32;21.07;;;5.83;;
3865;SDS011;1948;53.250;10.412;2022-07-09T01:28:59;9.57;;;4.83;;
3865;SDS011;1948;53.250;10.412;2022-07-09T01:31:26;16.97;;;4.87;;
3865;SDS011;1948;53.250;10.412;2022-07-09T01:33:56;23.10;;;5.53;;
3865;SDS011;1948;53.250;10.412;2022-07-09T01:36:23;17.03;;;5.83;;
3865;SDS011;1948;53.250;10.412;2022-07-09T01:38:50;24.43;;;5.60;;
3865;SDS011;1948;53.250;10.412;2022-07-09T01:41:17;13.70;;;5.83;;
3865;SDS011;1948;53.250;10.412;2022-07-09T01:43:44;12.10;;;5.37;;
3865;SDS011;1948;53.250;10.412;2022-07-09T01:46:11;20.77;;;5.30;;
3865;SDS011;1948;53.250;10.412;2022-07-09T01:48:38;18.07;;;5.27;;
3865;SDS011;1948;53.250;10.412;2022-07-09T01:51:08;20.00;;;5.90;;
3865;SDS011;1948;53.250;10.412;2022-07-09T01:53:35;24.27;;;5.53;;
3865;SDS011;1948;53.250;10.412;2022-07-09T01:56:07;22.10;;;6.40;;
3865;SDS011;1948;53.250;10.412;2022-07-09T01:58:38;13.87;;;5.20;;
3865;SDS011;1948;53.250;10.412;2022-07-09T02:01:05;11.67;;;5.37;;
3865;SDS011;1948;53.250;10.412;2022-07-09T02:03:35;22.87;;;5.77;;
3865;SDS011;1948;53.250;10.412;2022-07-09T02:06:02;11.70;;;5.50;;
3865;SDS011;1948;53.250;10.412;2022-07-09T02:08:34;8.53;;;4.90;;
3865;SDS011;1948;53.250;10.412;2022-07-09T02:11:05;13.17;;;5.07;;
3865;SDS011;1948;53.250;10.412;2022-07-09T02:13:34;10.23;;;5.53;;
3865;SDS011;1948;53.250;10.412;2022-07-09T02:16:01;19.13;;;6.23;;
3865;SDS011;1948;53.250;10.412;2022-07-09T02:18:31;12.37;;;4.60;;
3865;SDS011;1948;53.250;10.412;2022-07-09T02:20:58;21.13;;;6.30;;
3865;SDS011;1948;53.250;10.412;2022-07-09T02:23:28;15.13;;;5.10;;
3865;SDS011;1948;53.250;10.412;2022-07-09T02:25:57;17.20;;;5.10;;
3865;SDS011;1948;53.250;10.412;2022-07-09T02:28:24;14.40;;;5.67;;
3865;SDS011;1948;53.250;10.412;2022-07-09T02:30:52;11.60;;;4.93;;
3865;SDS011;1948;53.250;10.412;2022-07-09T02:33:20;24.50;;;7.07;;
3865;SDS011;1948;53.250;10.412;2022-07-09T02:35:47;13.17;;;5.57;;
3865;SDS011;1948;53.250;10.412;2022-07-09T02:38:17;14.73;;;4.77;;
3865;SDS011;1948;53.250;10.412;2022-07-09T02:40:47;13.27;;;5.07;;
3865;SDS011;1948;53.250;10.412;2022-07-09T02:43:14;20.00;;;5.13;;
3865;SDS011;1948;53.250;10.412;2022-07-09T02:45:43;17.50;;;5.23;;
3865;SDS011;1948;53.250;10.412;2022-07-09T02:48:10;11.10;;;4.97;;
3865;SDS011;1948;53.250;10.412;2022-07-09T02:50:40;15.70;;;4.70;;
3865;SDS011;1948;53.250;10.412;2022-07-09T02:53:07;12.37;;;4.97;;
3865;SDS011;1948;53.250;10.412;2022-07-09T02:55:37;10.37;;;5.73;;
3865;SDS011;1948;53.250;10.412;2022-07-09T02:58:07;22.10;;;6.00;;
3865;SDS011;1948;53.250;10.412;2022-07-09T03:00:34;15.97;;;4.57;;
3865;SDS011;1948;53.250;10.412;2022-07-09T03:03:06;13.80;;;4.93;;
3865;SDS011;1948;53.250;10.412;2022-07-09T03:05:34;20.67;;;5.87;;
3865;SDS011;1948;53.250;10.412;2022-07-09T03:08:02;11.70;;;5.30;;
3865;SDS011;1948;53.250;10.412;2022-07-09T03:10:29;15.73;;;4.80;;
3865;SDS011;1948;53.250;10.412;2022-07-09T03:12:56;21.60;;;6.17;;
3865;SDS011;1948;53.250;10.412;2022-07-09T03:15:23;19.27;;;4.93;;
3865;SDS011;1948;53.250;10.412;2022-07-09T03:17:50;13.40;;;4.93;;
3865;SDS011;1948;53.250;10.412;2022-07-09T03:20:17;17.40;;;5.10;;
3865;SDS011;1948;53.250;10.412;2022-07-09T03:22:47;11.60;;;5.40;;
3865;SDS011;1948;53.250;10.412;2022-07-09T03:25:16;20.80;;;6.43;;
3865;SDS011;1948;53.250;10.412;2022-07-09T03:27:43;14.30;;;4.70;;
3865;SDS011;1948;53.250;10.412;2022-07-09T03:30:10;9.47;;;4.97;;
3865;SDS011;1948;53.250;10.412;2022-07-09T03:32:40;7.80;;;4.23;;
3865;SDS011;1948;53.250;10.412;2022-07-09T03:35:10;14.70;;;4.83;;
3865;SDS011;1948;53.250;10.412;2022-07-09T03:37:37;19.90;;;5.60;;
3865;SDS011;1948;53.250;10.412;2022-07-09T03:40:04;14.63;;;5.40;;
3865;SDS011;1948;53.250;10.412;2022-07-09T03:42:32;14.00;;;4.87;;
3865;SDS011;1948;53.250;10.412;2022-07-09T03:45:02;14.30;;;5.57;;
3865;SDS011;1948;53.250;10.412;2022-07-09T03:47:29;16.83;;;5.73;;
3865;SDS011;1948;53.250;10.412;2022-07-09T03:49:56;14.57;;;5.13;;
3865;SDS011;1948;53.250;10.412;2022-07-09T03:52:25;18.03;;;5.30;;
3865;SDS011;1948;53.250;10.412;2022-07-09T03:54:55;20.30;;;6.43;;
3865;SDS011;1948;53.250;10.412;2022-07-09T03:57:22;10.40;;;4.60;;
3865;SDS011;1948;53.250;10.412;2022-07-09T03:59:52;16.80;;;5.00;;
3865;SDS011;1948;53.250;10.412;2022-07-09T04:02:19;19.13;;;5.93;;
3865;SDS011;1948;53.250;10.412;2022-07-09T04:04:48;18.00;;;6.27;;
3865;SDS011;1948;53.250;10.412;2022-07-09T04:07:17;20.93;;;5.00;;
3865;SDS011;1948;53.250;10.412;2022-07-09T04:09:44;21.97;;;6.00;;
3865;SDS011;1948;53.250;10.412;2022-07-09T04:12:11;16.17;;;5.50;;
3865;SDS011;1948;53.250;10.412;2022-07-09T04:14:38;17.57;;;4.93;;
3865;SDS011;1948;53.250;10.412;2022-07-09T04:17:08;11.63;;;4.60;;
3865;SDS011;1948;53.250;10.412;2022-07-09T04:19:37;21.17;;;5.20;;
3865;SDS011;1948;53.250;10.412;2022-07-09T04:22:04;10.30;;;5.03;;
3865;SDS011;1948;53.250;10.412;2022-07-09T04:24:36;6.03;;;4.53;;
3865;SDS011;1948;53.250;10.412;2022-07-09T04:27:03;12.20;;;4.60;;
3865;SDS011;1948;53.250;10.412;2022-07-09T04:29:31;14.13;;;4.90;;
3865;SDS011;1948;53.250;10.412;2022-07-09T04:31:58;23.23;;;4.80;;
3865;SDS011;1948;53.250;10.412;2022-07-09T04:34:25;11.73;;;5.00;;
3865;SDS011;1948;53.250;10.412;2022-07-09T04:36:52;11.97;;;4.60;;
3865;SDS011;1948;53.250;10.412;2022-07-09T04:39:20;12.33;;;5.20;;
3865;SDS011;1948;53.250;10.412;2022-07-09T04:41:49;15.70;;;4.90;;
3865;SDS011;1948;53.250;10.412;2022-07-09T04:44:16;13.83;;;4.13;;
3865;SDS011;1948;53.250;10.412;2022-07-09T04:46:46;9.73;;;3.90;;
3865;SDS011;1948;53.250;10.412;2022-07-09T04:49:13;15.63;;;4.23;;
3865;SDS011;1948;53.250;10.412;2022-07-09T04:51:39;10.37;;;4.53;;
3865;SDS011;1948;53.250;10.412;2022-07-09T04:54:06;8.53;;;3.93;;
3865;SDS011;1948;53.250;10.412;2022-07-09T04:56:33;10.53;;;4.30;;
3865;SDS011;1948;53.250;10.412;2022-07-09T04:59:00;11.63;;;4.27;;
3865;SDS011;1948;53.250;10.412;2022-07-09T05:01:30;11.23;;;4.30;;
3865;SDS011;1948;53.250;10.412;2022-07-09T05:03:57;8.23;;;4.10;;
3865;SDS011;1948;53.250;10.412;2022-07-09T05:06:27;12.00;;;4.83;;
3865;SDS011;1948;53.250;10.412;2022-07-09T05:08:54;7.80;;;4.20;;
3865;SDS011;1948;53.250;10.412;2022-07-09T05:11:23;6.10;;;4.13;;
3865;SDS011;1948;53.250;10.412;2022-07-09T05:13:54;16.33;;;4.20;;
3865;SDS011;1948;53.250;10.412;2022-07-09T05:16:22;15.37;;;4.83;;
3865;SDS011;1948;53.250;10.412;2022-07-09T05:18:49;10.47;;;4.40;;
3865;SDS011;1948;53.250;10.412;2022-07-09T05:21:18;17.23;;;4.80;;
3865;SDS011;1948;53.250;10.412;2022-07-09T05:23:47;10.40;;;3.93;;
3865;SDS011;1948;53.250;10.412;2022-07-09T05:26:14;11.00;;;4.30;;
3865;SDS011;1948;53.250;10.412;2022-07-09T05:28:41;6.20;;;3.83;;
3865;SDS011;1948;53.250;10.412;2022-07-09T05:31:12;7.80;;;4.07;;
3865;SDS011;1948;53.250;10.412;2022-07-09T05:33:59;13.73;;;4.47;;
3865;SDS011;1948;53.250;10.412;2022-07-09T05:36:29;6.90;;;3.80;;
3865;SDS011;1948;53.250;10.412;2022-07-09T05:38:58;10.43;;;4.07;;
3865;SDS011;1948;53.250;10.412;2022-07-09T05:41:30;12.83;;;4.07;;
3865;SDS011;1948;53.250;10.412;2022-07-09T05:43:57;4.10;;;3.30;;
3865;SDS011;1948;53.250;10.412;2022-07-09T05:46:24;4.30;;;3.90;;
3865;SDS011;1948;53.250;10.412;2022-07-09T05:48:51;3.90;;;3.60;;
3865;SDS011;1948;53.250;10.412;2022-07-09T05:51:18;9.53;;;4.40;;
3865;SDS011;1948;53.250;10.412;2022-07-09T05:53:45;23.03;;;9.10;;
3865;SDS011;1948;53.250;10.412;2022-07-09T05:56:12;5.93;;;4.60;;
3865;SDS011;1948;53.250;10.412;2022-07-09T05:58:42;9.03;;;3.30;;
3865;SDS011;1948;53.250;10.412;2022-07-09T06:01:08;4.23;;;3.20;;
3865;SDS011;1948;53.250;10.412;2022-07-09T06:03:36;6.47;;;2.93;;
3865;SDS011;1948;53.250;10.412;2022-07-09T06:06:03;4.13;;;3.33;;
3865;SDS011;1948;53.250;10.412;2022-07-09T06:08:30;11.20;;;3.63;;
3865;SDS011;1948;53.250;10.412;2022-07-09T06:11:01;8.10;;;3.53;;
3865;SDS011;1948;53.250;10.412;2022-07-09T06:13:29;4.47;;;3.20;;
3865;SDS011;1948;53.250;10.412;2022-07-09T06:15:56;7.50;;;2.80;;
3865;SDS011;1948;53.250;10.412;2022-07-09T06:18:25;10.90;;;3.50;;
3865;SDS011;1948;53.250;10.412;2022-07-09T06:20:53;6.70;;;3.00;;
3865;SDS011;1948;53.250;10.412;2022-07-09T06:23:20;5.20;;;2.83;;
3865;SDS011;1948;53.250;10.412;2022-07-09T06:25:54;13.47;;;3.00;;
3865;SDS011;1948;53.250;10.412;2022-07-09T06:28:21;5.20;;;3.03;;
3865;SDS011;1948;53.250;10.412;2022-07-09T06:30:51;4.97;;;3.47;;
3865;SDS011;1948;53.250;10.412;2022-07-09T06:33:18;3.50;;;3.20;;
3865;SDS011;1948;53.250;10.412;2022-07-09T06:35:47;5.30;;;3.17;;
3865;SDS011;1948;53.250;10.412;2022-07-09T06:38:14;5.07;;;3.47;;
3865;SDS011;1948;53.250;10.412;2022-07-09T06:40:46;7.27;;;3.50;;
3865;SDS011;1948;53.250;10.412;2022-07-09T06:43:13;4.33;;;3.20;;
3865;SDS011;1948;53.250;10.412;2022-07-09T06:45:39;3.13;;;2.83;;
3865;SDS011;1948;53.250;10.412;2022-07-09T06:48:07;4.93;;;3.30;;
3865;SDS011;1948;53.250;10.412;2022-07-09T06:50:36;9.50;;;3.03;;
3865;SDS011;1948;53.250;10.412;2022-07-09T06:53:05;5.67;;;3.17;;
3865;SDS011;1948;53.250;10.412;2022-07-09T06:55:32;5.17;;;3.37;;
3865;SDS011;1948;53.250;10.412;2022-07-09T06:58:02;3.77;;;3.37;;
3865;SDS011;1948;53.250;10.412;2022-07-09T07:00:28;5.97;;;4.07;;
3865;SDS011;1948;53.250;10.412;2022-07-09T07:03:00;12.13;;;4.47;;
3865;SDS011;1948;53.250;10.412;2022-07-09T07:05:27;11.30;;;4.10;;
3865;SDS011;1948;53.250;10.412;2022-07-09T07:07:57;9.20;;;3.93;;
3865;SDS011;1948;53.250;10.412;2022-07-09T07:10:24;5.23;;;4.43;;
3865;SDS011;1948;53.250;10.412;2022-07-09T07:12:51;6.03;;;4.13;;
3865;SDS011;1948;53.250;10.412;2022-07-09T07:15:21;8.30;;;4.50;;
3865;SDS011;1948;53.250;10.412;2022-07-09T07:17:48;6.90;;;4.50;;
3865;SDS011;1948;53.250;10.412;2022-07-09T07:20:23;4.47;;;4.20;;
3865;SDS011;1948;53.250;10.412;2022-07-09T07:22:51;6.07;;;4.03;;
3865;SDS011;1948;53.250;10.412;2022-07-09T07:25:18;4.90;;;4.50;;
3865;SDS011;1948;53.250;10.412;2022-07-09T07:27:45;4.17;;;3.67;;
3865;SDS011;1948;53.250;10.412;2022-07-09T07:30:12;6.97;;;4.50;;
3865;SDS011;1948;53.250;10.412;2022-07-09T07:32:44;8.73;;;4.67;;
3865;SDS011;1948;53.250;10.412;2022-07-09T07:35:11;5.27;;;4.77;;
3865;SDS011;1948;53.250;10.412;2022-07-09T07:37:38;5.17;;;4.17;;
3865;SDS011;1948;53.250;10.412;2022-07-09T07:40:05;4.27;;;3.87;;
3865;SDS011;1948;53.250;10.412;2022-07-09T07:42:36;4.40;;;4.03;;
3865;SDS011;1948;53.250;10.412;2022-07-09T07:45:04;4.20;;;3.90;;
3865;SDS011;1948;53.250;10.412;2022-07-09T07:47:31;8.00;;;3.87;;
3865;SDS011;1948;53.250;10.412;2022-07-09T07:49:58;11.23;;;3.47;;
3865;SDS011;1948;53.250;10.412;2022-07-09T07:52:28;9.93;;;4.03;;
3865;SDS011;1948;53.250;10.412;2022-07-09T07:54:55;5.73;;;4.43;;
3865;SDS011;1948;53.250;10.412;2022-07-09T07:57:22;6.37;;;4.10;;
3865;SDS011;1948;53.250;10.412;2022-07-09T07:59:52;8.07;;;4.10;;
3865;SDS011;1948;53.250;10.412;2022-07-09T08:02:21;5.40;;;3.33;;
3865;SDS011;1948;53.250;10.412;2022-07-09T08:04:48;4.30;;;3.83;;
3865;SDS011;1948;53.250;10.412;2022-07-09T08:07:19;4.90;;;3.30;;
3865;SDS011;1948;53.250;10.412;2022-07-09T08:09:45;4.13;;;3.53;;
3865;SDS011;1948;53.250;10.412;2022-07-09T08:12:15;6.27;;;3.20;;
3865;SDS011;1948;53.250;10.412;2022-07-09T08:14:43;4.20;;;3.50;;
3865;SDS011;1948;53.250;10.412;2022-07-09T08:17:10;4.27;;;3.60;;
3865;SDS011;1948;53.250;10.412;2022-07-09T08:19:37;4.60;;;3.23;;
3865;SDS011;1948;53.250;10.412;2022-07-09T08:22:05;4.33;;;3.03;;
3865;SDS011;1948;53.250;10.412;2022-07-09T08:24:32;8.53;;;3.40;;
3865;SDS011;1948;53.250;10.412;2022-07-09T08:26:59;3.37;;;3.10;;
3865;SDS011;1948;53.250;10.412;2022-07-09T08:29:29;3.63;;;3.13;;
3865;SDS011;1948;53.250;10.412;2022-07-09T08:32:02;2.97;;;2.90;;
3865;SDS011;1948;53.250;10.412;2022-07-09T08:34:32;3.57;;;2.80;;
3865;SDS011;1948;53.250;10.412;2022-07-09T08:36:59;4.23;;;2.73;;
3865;SDS011;1948;53.250;10.412;2022-07-09T08:39:25;3.10;;;2.90;;
3865;SDS011;1948;53.250;10.412;2022-07-09T08:41:54;3.03;;;2.67;;
3865;SDS011;1948;53.250;10.412;2022-07-09T08:44:30;2.43;;;2.27;;
3865;SDS011;1948;53.250;10.412;2022-07-09T08:47:02;4.93;;;3.87;;
3865;SDS011;1948;53.250;10.412;2022-07-09T08:49:31;3.20;;;2.93;;
3865;SDS011;1948;53.250;10.412;2022-07-09T08:51:58;12.43;;;3.40;;
3865;SDS011;1948;53.250;10.412;2022-07-09T08:54:33;3.23;;;2.47;;
3865;SDS011;1948;53.250;10.412;2022-07-09T08:57:06;2.80;;;2.70;;
3865;SDS011;1948;53.250;10.412;2022-07-09T08:59:34;2.43;;;2.23;;
3865;SDS011;1948;53.250;10.412;2022-07-09T09:02:05;3.60;;;3.00;;
3865;SDS011;1948;53.250;10.412;2022-07-09T09:04:37;2.57;;;2.47;;
3865;SDS011;1948;53.250;10.412;2022-07-09T09:07:17;3.10;;;2.90;;
3865;SDS011;1948;53.250;10.412;2022-07-09T09:09:49;3.47;;;2.57;;
3865;SDS011;1948;53.250;10.412;2022-07-09T09:12:26;3.70;;;2.17;;
3865;SDS011;1948;53.250;10.412;2022-07-09T09:14:59;2.80;;;2.60;;
3865;SDS011;1948;53.250;10.412;2022-07-09T09:17:31;2.33;;;2.23;;
3865;SDS011;1948;53.250;10.412;2022-07-09T09:19:57;7.70;;;2.90;;
3865;SDS011;1948;53.250;10.412;2022-07-09T09:22:31;2.43;;;2.20;;
3865;SDS011;1948;53.250;10.412;2022-07-09T09:24:58;3.27;;;3.07;;
3865;SDS011;1948;53.250;10.412;2022-07-09T09:27:30;6.43;;;2.97;;
3865;SDS011;1948;53.250;10.412;2022-07-09T09:29:58;2.10;;;2.00;;
3865;SDS011;1948;53.250;10.412;2022-07-09T09:32:31;3.13;;;3.00;;
3865;SDS011;1948;53.250;10.412;2022-07-09T09:35:03;9.00;;;2.80;;
3865;SDS011;1948;53.250;10.412;2022-07-09T09:37:34;3.90;;;2.53;;
3865;SDS011;1948;53.250;10.412;2022-07-09T09:40:12;3.70;;;2.30;;
3865;SDS011;1948;53.250;10.412;2022-07-09T09:42:46;1.90;;;1.80;;
3865;SDS011;1948;53.250;10.412;2022-07-09T09:45:32;2.70;;;2.50;;
3865;SDS011;1948;53.250;10.412;2022-07-09T09:48:25;3.93;;;2.00;;
3865;SDS011;1948;53.250;10.412;2022-07-09T09:50:59;2.17;;;2.00;;
3865;SDS011;1948;53.250;10.412;2022-07-09T09:53:35;2.17;;;2.07;;
3865;SDS011;1948;53.250;10.412;2022-07-09T09:56:04;3.20;;;2.10;;
3865;SDS011;1948;53.250;10.412;2022-07-09T09:58:36;2.60;;;2.40;;
3865;SDS011;1948;53.250;10.412;2022-07-09T10:01:05;2.97;;;2.60;;
3865;SDS011;1948;53.250;10.412;2022-07-09T10:03:36;5.30;;;2.53;;
3865;SDS011;1948;53.250;10.412;2022-07-09T10:06:08;7.50;;;2.67;;
3865;SDS011;1948;53.250;10.412;2022-07-09T10:08:37;4.03;;;2.03;;
3865;SDS011;1948;53.250;10.412;2022-07-09T10:11:05;2.00;;;1.87;;
3865;SDS011;1948;53.250;10.412;2022-07-09T10:13:33;5.63;;;1.90;;
3865;SDS011;1948;53.250;10.412;2022-07-09T10:16:07;1.53;;;1.53;;
3865;SDS011;1948;53.250;10.412;2022-07-09T10:18:37;1.50;;;1.40;;
3865;SDS011;1948;53.250;10.412;2022-07-09T10:21:31;1.90;;;1.70;;
3865;SDS011;1948;53.250;10.412;2022-07-09T10:24:06;2.67;;;1.77;;
3865;SDS011;1948;53.250;10.412;2022-07-09T10:26:46;3.80;;;1.70;;
3865;SDS011;1948;53.250;10.412;2022-07-09T10:29:17;5.60;;;1.67;;
3865;SDS011;1948;53.250;10.412;2022-07-09T10:31:53;1.77;;;1.60;;
3865;SDS011;1948;53.250;10.412;2022-07-09T10:34:26;2.97;;;1.57;;
3865;SDS011;1948;53.250;10.412;2022-07-09T10:37:04;3.27;;;1.43;;
3865;SDS011;1948;53.250;10.412;2022-07-09T10:39:32;1.77;;;1.50;;
3865;SDS011;1948;53.250;10.412;2022-07-09T10:42:07;1.60;;;1.50;;
3865;SDS011;1948;53.250;10.412;2022-07-09T10:44:45;3.43;;;1.57;;
3865;SDS011;1948;53.250;10.412;2022-07-09T10:47:15;1.87;;;1.77;;
3865;SDS011;1948;53.250;10.412;2022-07-09T10:49:45;2.30;;;2.10;;
3865;SDS011;1948;53.250;10.412;2022-07-09T10:52:12;2.40;;;1.43;;
3865;SDS011;1948;53.250;10.412;2022-07-09T10:54:45;1.40;;;1.30;;
3865;SDS011;1948;53.250;10.412;2022-07-09T10:57:17;1.33;;;1.23;;
3865;SDS011;1948;53.250;10.412;2022-07-09T10:59:45;9.57;;;2.23;;
3865;SDS011;1948;53.250;10.412;2022-07-09T11:02:22;5.37;;;1.60;;
3865;SDS011;1948;53.250;10.412;2022-07-09T11:04:50;9.53;;;1.60;;
3865;SDS011;1948;53.250;10.412;2022-07-09T11:07:25;1.30;;;1.27;;
3865;SDS011;1948;53.250;10.412;2022-07-09T11:09:53;4.60;;;2.67;;
3865;SDS011;1948;53.250;10.412;2022-07-09T11:12:24;7.67;;;2.70;;
3865;SDS011;1948;53.250;10.412;2022-07-09T11:14:51;3.70;;;1.40;;
3865;SDS011;1948;53.250;10.412;2022-07-09T11:17:19;8.13;;;1.10;;
3865;SDS011;1948;53.250;10.412;2022-07-09T11:19:48;6.47;;;1.63;;
3865;SDS011;1948;53.250;10.412;2022-07-09T11:22:15;3.70;;;1.47;;
3865;SDS011;1948;53.250;10.412;2022-07-09T11:24:45;9.40;;;1.20;;
3865;SDS011;1948;53.250;10.412;2022-07-09T11:27:13;4.77;;;1.30;;
3865;SDS011;1948;53.250;10.412;2022-07-09T11:29:45;1.00;;;0.90;;
3865;SDS011;1948;53.250;10.412;2022-07-09T11:32:17;1.63;;;1.00;;
3865;SDS011;1948;53.250;10.412;2022-07-09T11:34:50;1.43;;;1.33;;
3865;SDS011;1948;53.250;10.412;2022-07-09T11:37:24;1.17;;;1.03;;
3865;SDS011;1948;53.250;10.412;2022-07-09T11:39:54;3.60;;;1.27;;
3865;SDS011;1948;53.250;10.412;2022-07-09T11:42:23;9.80;;;1.63;;
3865;SDS011;1948;53.250;10.412;2022-07-09T11:44:53;1.60;;;1.50;;
3865;SDS011;1948;53.250;10.412;2022-07-09T11:47:33;8.03;;;1.27;;
3865;SDS011;1948;53.250;10.412;2022-07-09T11:50:12;2.00;;;1.40;;
3865;SDS011;1948;53.250;10.412;2022-07-09T11:52:45;1.30;;;1.20;;
3865;SDS011;1948;53.250;10.412;2022-07-09T11:55:16;6.77;;;1.60;;
3865;SDS011;1948;53.250;10.412;2022-07-09T11:57:56;5.93;;;1.77;;
3865;SDS011;1948;53.250;10.412;2022-07-09T12:00:29;1.30;;;1.03;;
3865;SDS011;1948;53.250;10.412;2022-07-09T12:02:59;2.20;;;0.90;;
3865;SDS011;1948;53.250;10.412;2022-07-09T12:05:27;1.70;;;1.60;;
3865;SDS011;1948;53.250;10.412;2022-07-09T12:08:06;4.37;;;1.57;;
3865;SDS011;1948;53.250;10.412;2022-07-09T12:10:38;2.00;;;1.90;;
3865;SDS011;1948;53.250;10.412;2022-07-09T12:13:10;1.93;;;1.33;;
3865;SDS011;1948;53.250;10.412;2022-07-09T12:15:39;13.57;;;1.43;;
3865;SDS011;1948;53.250;10.412;2022-07-09T12:18:06;3.60;;;1.40;;
3865;SDS011;1948;53.250;10.412;2022-07-09T12:20:33;2.10;;;1.03;;
3865;SDS011;1948;53.250;10.412;2022-07-09T12:23:00;0.97;;;0.97;;
3865;SDS011;1948;53.250;10.412;2022-07-09T12:25:27;2.23;;;1.53;;
3865;SDS011;1948;53.250;10.412;2022-07-09T12:27:54;1.37;;;1.20;;
3865;SDS011;1948;53.250;10.412;2022-07-09T12:30:22;3.90;;;1.60;;
3865;SDS011;1948;53.250;10.412;2022-07-09T12:32:49;2.00;;;1.13;;
3865;SDS011;1948;53.250;10.412;2022-07-09T12:35:17;6.63;;;1.27;;
3865;SDS011;1948;53.250;10.412;2022-07-09T12:37:44;1.40;;;1.30;;
3865;SDS011;1948;53.250;10.412;2022-07-09T12:40:11;1.77;;;1.33;;
3865;SDS011;1948;53.250;10.412;2022-07-09T12:42:38;2.00;;;1.20;;
3865;SDS011;1948;53.250;10.412;2022-07-09T12:45:06;3.00;;;1.57;;
3865;SDS011;1948;53.250;10.412;2022-07-09T12:47:36;1.73;;;1.33;;
3865;SDS011;1948;53.250;10.412;2022-07-09T12:50:04;4.43;;;1.50;;
3865;SDS011;1948;53.250;10.412;2022-07-09T12:52:32;1.37;;;1.30;;
3865;SDS011;1948;53.250;10.412;2022-07-09T12:55:02;2.20;;;1.07;;
3865;SDS011;1948;53.250;10.412;2022-07-09T12:57:36;1.93;;;1.83;;
3865;SDS011;1948;53.250;10.412;2022-07-09T13:00:04;3.07;;;1.50;;
3865;SDS011;1948;53.250;10.412;2022-07-09T13:02:35;5.40;;;1.63;;
3865;SDS011;1948;53.250;10.412;2022-07-09T13:05:05;3.30;;;2.00;;
3865;SDS011;1948;53.250;10.412;2022-07-09T13:07:33;1.70;;;1.40;;
3865;SDS011;1948;53.250;10.412;2022-07-09T13:10:02;4.67;;;1.50;;
3865;SDS011;1948;53.250;10.412;2022-07-09T13:12:30;1.93;;;1.53;;
3865;SDS011;1948;53.250;10.412;2022-07-09T13:15:00;10.67;;;1.60;;
3865;SDS011;1948;53.250;10.412;2022-07-09T13:17:27;2.20;;;1.20;;
3865;SDS011;1948;53.250;10.412;2022-07-09T13:19:58;2.90;;;1.30;;
3865;SDS011;1948;53.250;10.412;2022-07-09T13:22:26;2.07;;;1.33;;
3865;SDS011;1948;53.250;10.412;2022-07-09T13:24:58;4.63;;;1.40;;
3865;SDS011;1948;53.250;10.412;2022-07-09T13:27:25;5.07;;;1.77;;
3865;SDS011;1948;53.250;10.412;2022-07-09T13:29:52;1.30;;;1.30;;
3865;SDS011;1948;53.250;10.412;2022-07-09T13:32:19;5.30;;;1.90;;
3865;SDS011;1948;53.250;10.412;2022-07-09T13:34:49;13.33;;;1.50;;
3865;SDS011;1948;53.250;10.412;2022-07-09T13:37:19;5.17;;;1.50;;
3865;SDS011;1948;53.250;10.412;2022-07-09T13:39:49;6.67;;;1.50;;
3865;SDS011;1948;53.250;10.412;2022-07-09T13:42:17;7.63;;;2.23;;
3865;SDS011;1948;53.250;10.412;2022-07-09T13:44:46;3.03;;;1.40;;
3865;SDS011;1948;53.250;10.412;2022-07-09T13:47:13;1.67;;;1.57;;
3865;SDS011;1948;53.250;10.412;2022-07-09T13:49:41;3.30;;;1.40;;
3865;SDS011;1948;53.250;10.412;2022-07-09T13:52:08;3.50;;;1.40;;
3865;SDS011;1948;53.250;10.412;2022-07-09T13:54:35;1.50;;;1.40;;
3865;SDS011;1948;53.250;10.412;2022-07-09T13:57:04;3.80;;;1.73;;
3865;SDS011;1948;53.250;10.412;2022-07-09T13:59:32;5.80;;;1.63;;
3865;SDS011;1948;53.250;10.412;2022-07-09T14:01:59;2.40;;;1.33;;
3865;SDS011;1948;53.250;10.412;2022-07-09T14:04:32;1.43;;;1.33;;
3865;SDS011;1948;53.250;10.412;2022-07-09T14:06:59;6.10;;;1.40;;
3865;SDS011;1948;53.250;10.412;2022-07-09T14:09:26;2.50;;;1.67;;
3865;SDS011;1948;53.250;10.412;2022-07-09T14:11:53;13.00;;;2.20;;
3865;SDS011;1948;53.250;10.412;2022-07-09T14:14:20;6.30;;;1.13;;
3865;SDS011;1948;53.250;10.412;2022-07-09T14:16:47;7.43;;;1.90;;
3865;SDS011;1948;53.250;10.412;2022-07-09T14:19:16;3.03;;;1.40;;
3865;SDS011;1948;53.250;10.412;2022-07-09T14:21:45;6.07;;;2.20;;
3865;SDS011;1948;53.250;10.412;2022-07-09T14:24:15;2.70;;;1.37;;
3865;SDS011;1948;53.250;10.412;2022-07-09T14:26:42;2.30;;;1.17;;
3865;SDS011;1948;53.250;10.412;2022-07-09T14:29:11;11.67;;;1.40;;
3865;SDS011;1948;53.250;10.412;2022-07-09T14:31:46;2.40;;;1.30;;
3865;SDS011;1948;53.250;10.412;2022-07-09T14:34:16;2.73;;;1.40;;
3865;SDS011;1948;53.250;10.412;2022-07-09T14:36:43;7.50;;;1.40;;
3865;SDS011;1948;53.250;10.412;2022-07-09T14:39:14;5.17;;;1.70;;
3865;SDS011;1948;53.250;10.412;2022-07-09T14:41:43;8.00;;;2.30;;
3865;SDS011;1948;53.250;10.412;2022-07-09T14:44:11;7.30;;;2.20;;
3865;SDS011;1948;53.250;10.412;2022-07-09T14:46:39;3.67;;;2.00;;
3865;SDS011;1948;53.250;10.412;2022-07-09T14:49:09;5.83;;;1.67;;
3865;SDS011;1948;53.250;10.412;2022-07-09T14:51:36;4.40;;;1.80;;
3865;SDS011;1948;53.250;10.412;2022-07-09T14:54:07;6.10;;;1.40;;
3865;SDS011;1948;53.250;10.412;2022-07-09T14:56:36;1.90;;;1.23;;
3865;SDS011;1948;53.250;10.412;2022-07-09T14:59:04;1.87;;;1.30;;
3865;SDS011;1948;53.250;10.412;2022-07-09T15:01:32;3.80;;;1.53;;
3865;SDS011;1948;53.250;10.412;2022-07-09T15:03:59;9.07;;;2.33;;
3865;SDS011;1948;53.250;10.412;2022-07-09T15:06:26;2.30;;;0.90;;
3865;SDS011;1948;53.250;10.412;2022-07-09T15:08:56;5.07;;;2.30;;